Time,TemperatureF,DewpointF,PressureIn,WindDirection,WindDirectionDegrees,WindSpeedMPH,WindSpeedGustMPH,Humidity,HourlyPrecipIn,Conditions,Clouds,dailyrainin,SolarRadiationWatts/m^2,SoftwareType,DateUTC
2013-04-27 00:04:00,64.8,61.2,30.16,SE,144,0.0,1.0,88,0.00,,,0.00,0,Wunderground v.1.15,2013-04-27 05:04:00,
2013-04-27 00:10:00,64.7,61.4,30.16,South,175,1.0,1.0,89,0.00,,,0.00,0,Wunderground v.1.15,2013-04-27 05:10:00,
2013-04-27 00:15:00,64.6,61.3,30.16,South,171,0.0,1.0,89,0.00,,,0.00,0,Wunderground v.1.15,2013-04-27 05:15:00,
2013-04-27 00:20:00,64.5,61.2,30.16,SSE,157,0.0,0.0,89,0.00,,,0.00,0,Wunderground v.1.15,2013-04-27 05:20:00,
2013-04-27 00:26:00,64.5,61.2,30.15,SSE,156,0.0,0.0,89,0.00,,,0.00,0,Wunderground v.1.15,2013-04-27 05:26:00,
2013-04-27 00:31:00,64.3,61.3,30.14,SSE,156,0.0,0.0,90,0.00,,,0.00,0,Wunderground v.1.15,2013-04-27 05:31:00,
2013-04-27 00:36:00,64.2,61.2,30.14,SE,145,0.0,3.0,90,0.00,,,0.00,0,Wunderground v.1.15,2013-04-27 05:36:00,
2013-04-27 00:42:00,64.1,61.4,30.15,South,188,0.0,3.0,91,0.00,,,0.00,0,Wunderground v.1.15,2013-04-27 05:42:00,
2013-04-27 00:47:00,64.0,61.3,30.14,SE,127,0.0,3.0,91,0.00,,,0.00,0,Wunderground v.1.15,2013-04-27 05:47:00,
2013-04-27 00:52:00,63.9,61.2,30.13,SE,136,0.0,0.0,91,0.00,,,0.00,0,Wunderground v.1.15,2013-04-27 05:52:00,
2013-04-27 00:58:00,63.8,61.1,30.14,SSE,158,0.0,0.0,91,0.00,,,0.00,0,Wunderground v.1.15,2013-04-27 05:58:00,
2013-04-27 01:03:00,63.8,61.4,30.13,SSE,150,0.0,2.0,92,0.00,,,0.00,0,Wunderground v.1.15,2013-04-27 06:03:00,
2013-04-27 01:08:00,63.7,61.3,30.13,SSE,149,0.0,2.0,92,0.00,,,0.00,0,Wunderground v.1.15,2013-04-27 06:08:00,
2013-04-27 01:13:00,63.6,61.2,30.14,SSE,148,0.0,0.0,92,0.00,,,0.00,0,Wunderground v.1.15,2013-04-27 06:13:00,
2013-04-27 01:18:00,63.6,61.2,30.13,SSE,150,0.0,0.0,92,0.00,,,0.00,0,Wunderground v.1.15,2013-04-27 06:18:00,
2013-04-27 01:24:00,63.5,61.4,30.13,SSE,150,0.0,0.0,93,0.00,,,0.00,0,Wunderground v.1.15,2013-04-27 06:24:00,
2013-04-27 01:29:00,63.4,61.3,30.12,SSE,150,0.0,0.0,93,0.00,,,0.00,0,Wunderground v.1.15,2013-04-27 06:29:00,
2013-04-27 01:34:00,63.4,61.3,30.12,SSE,149,0.0,0.0,93,0.00,,,0.00,0,Wunderground v.1.15,2013-04-27 06:34:00,
2013-04-27 01:40:00,63.2,61.1,30.12,SSE,149,0.0,0.0,93,0.00,,,0.00,0,Wunderground v.1.15,2013-04-27 06:40:00,
2013-04-27 01:45:00,63.1,61.0,30.12,SSE,149,0.0,0.0,93,0.00,,,0.00,0,Wunderground v.1.15,2013-04-27 06:45:00,
2013-04-27 01:50:00,62.9,61.1,30.11,SSE,147,0.0,0.0,94,0.00,,,0.00,0,Wunderground v.1.15,2013-04-27 06:50:00,
2013-04-27 01:55:00,62.7,60.9,30.10,SE,140,0.0,0.0,94,0.00,,,0.00,0,Wunderground v.1.15,2013-04-27 06:55:00,
2013-04-27 02:00:00,62.7,60.9,30.10,SSE,158,0.0,0.0,94,0.00,,,0.00,0,Wunderground v.1.15,2013-04-27 07:00:00,
2013-04-27 02:06:00,62.6,61.1,30.10,SSE,156,0.0,0.0,95,0.00,,,0.00,0,Wunderground v.1.15,2013-04-27 07:06:00,
2013-04-27 02:11:00,62.6,61.1,30.11,SE,145,0.0,0.0,95,0.00,,,0.00,0,Wunderground v.1.15,2013-04-27 07:11:00,
2013-04-27 02:16:00,62.6,61.1,30.11,SE,146,0.0,0.0,95,0.00,,,0.00,0,Wunderground v.1.15,2013-04-27 07:16:00,
2013-04-27 02:21:00,62.6,61.1,30.11,SSE,147,0.0,0.0,95,0.00,,,0.00,0,Wunderground v.1.15,2013-04-27 07:21:00,
2013-04-27 02:26:00,62.7,61.2,30.11,SSE,147,0.0,0.0,95,0.00,,,0.00,0,Wunderground v.1.15,2013-04-27 07:26:00,
2013-04-27 02:32:00,62.7,61.2,30.11,SSE,147,0.0,0.0,95,0.00,,,0.00,0,Wunderground v.1.15,2013-04-27 07:32:00,
2013-04-27 02:37:00,62.9,61.4,30.11,SSE,147,0.0,2.0,95,0.00,,,0.00,0,Wunderground v.1.15,2013-04-27 07:37:00,
2013-04-27 02:42:00,63.0,61.5,30.11,SSE,148,0.0,0.0,95,0.00,,,0.00,0,Wunderground v.1.15,2013-04-27 07:42:00,
2013-04-27 02:48:00,63.1,61.6,30.11,SSE,148,0.0,0.0,95,0.00,,,0.00,0,Wunderground v.1.15,2013-04-27 07:48:00,
2013-04-27 02:53:00,63.1,61.6,30.11,SSE,147,0.0,0.0,95,0.00,,,0.00,0,Wunderground v.1.15,2013-04-27 07:53:00,
2013-04-27 02:58:00,63.2,61.7,30.12,SSE,148,0.0,0.0,95,0.00,,,0.00,0,Wunderground v.1.15,2013-04-27 07:58:00,
2013-04-27 03:04:00,63.4,61.9,30.11,SSE,148,0.0,0.0,95,0.00,,,0.00,0,Wunderground v.1.15,2013-04-27 08:04:00,
2013-04-27 03:09:00,63.5,62.3,30.11,SSE,148,0.0,0.0,96,0.00,,,0.00,0,Wunderground v.1.15,2013-04-27 08:09:00,
2013-04-27 03:14:00,63.6,62.4,30.11,SSE,148,0.0,2.0,96,0.00,,,0.00,0,Wunderground v.1.15,2013-04-27 08:14:00,
2013-04-27 03:19:00,63.6,62.4,30.11,SSE,148,0.0,2.0,96,0.00,,,0.00,0,Wunderground v.1.15,2013-04-27 08:19:00,
2013-04-27 03:25:00,63.7,62.5,30.11,SSE,148,0.0,0.0,96,0.00,,,0.00,0,Wunderground v.1.15,2013-04-27 08:25:00,
2013-04-27 03:30:00,63.8,62.6,30.11,SSE,148,0.0,0.0,96,0.00,,,0.00,0,Wunderground v.1.15,2013-04-27 08:30:00,
2013-04-27 03:35:00,63.8,62.6,30.11,SSE,148,0.0,0.0,96,0.00,,,0.00,0,Wunderground v.1.15,2013-04-27 08:35:00,
2013-04-27 03:41:00,63.9,62.7,30.10,SSE,148,0.0,0.0,96,0.00,,,0.00,0,Wunderground v.1.15,2013-04-27 08:41:00,
2013-04-27 03:46:00,63.9,62.7,30.10,SSE,148,0.0,0.0,96,0.00,,,0.00,0,Wunderground v.1.15,2013-04-27 08:46:00,
2013-04-27 03:51:00,63.9,62.7,30.10,SSE,148,0.0,0.0,96,0.00,,,0.00,0,Wunderground v.1.15,2013-04-27 08:51:00,
2013-04-27 03:57:00,64.0,62.8,30.10,SSE,150,0.0,0.0,96,0.00,,,0.00,0,Wunderground v.1.15,2013-04-27 08:57:00,
2013-04-27 04:02:00,64.0,63.1,30.10,SSE,150,0.0,0.0,97,0.00,,,0.00,0,Wunderground v.1.15,2013-04-27 09:02:00,
2013-04-27 04:07:00,64.0,63.1,30.10,SSE,150,0.0,0.0,97,0.00,,,0.00,0,Wunderground v.1.15,2013-04-27 09:07:00,
2013-04-27 04:12:00,64.1,63.2,30.11,SSE,150,0.0,0.0,97,0.00,,,0.00,0,Wunderground v.1.15,2013-04-27 09:12:00,
2013-04-27 04:18:00,64.1,63.2,30.11,SW,219,0.0,3.0,97,0.00,,,0.00,0,Wunderground v.1.15,2013-04-27 09:18:00,
2013-04-27 04:23:00,64.1,63.2,30.11,SW,219,0.0,0.0,97,0.00,,,0.00,0,Wunderground v.1.15,2013-04-27 09:23:00,
2013-04-27 04:28:00,64.1,63.2,30.11,SW,219,0.0,0.0,97,0.00,,,0.00,0,Wunderground v.1.15,2013-04-27 09:28:00,
2013-04-27 04:33:00,64.1,63.2,30.11,SW,219,0.0,0.0,97,0.00,,,0.00,0,Wunderground v.1.15,2013-04-27 09:33:00,
2013-04-27 04:39:00,64.0,63.1,30.11,SW,219,0.0,0.0,97,0.00,,,0.00,0,Wunderground v.1.15,2013-04-27 09:39:00,
2013-04-27 04:44:00,64.0,63.1,30.11,SW,219,0.0,0.0,97,0.00,,,0.00,0,Wunderground v.1.15,2013-04-27 09:44:00,
2013-04-27 04:49:00,64.0,63.1,30.11,SW,219,0.0,0.0,97,0.00,,,0.00,0,Wunderground v.1.15,2013-04-27 09:49:00,
2013-04-27 04:54:00,63.9,63.0,30.11,SW,219,0.0,0.0,97,0.00,,,0.00,0,Wunderground v.1.15,2013-04-27 09:54:00,
2013-04-27 04:59:00,63.9,63.0,30.11,SW,219,0.0,0.0,97,0.00,,,0.00,0,Wunderground v.1.15,2013-04-27 09:59:00,
2013-04-27 05:05:00,64.0,63.1,30.11,SW,219,0.0,0.0,97,0.00,,,0.00,0,Wunderground v.1.15,2013-04-27 10:05:00,
2013-04-27 05:10:00,64.0,63.1,30.11,SW,219,0.0,0.0,97,0.00,,,0.00,0,Wunderground v.1.15,2013-04-27 10:10:00,
2013-04-27 05:15:00,63.9,63.0,30.11,SW,219,0.0,0.0,97,0.00,,,0.00,0,Wunderground v.1.15,2013-04-27 10:15:00,
2013-04-27 05:20:00,63.9,63.0,30.11,SW,219,0.0,0.0,97,0.00,,,0.00,0,Wunderground v.1.15,2013-04-27 10:20:00,
2013-04-27 05:26:00,63.8,62.9,30.11,SW,219,0.0,0.0,97,0.00,,,0.00,0,Wunderground v.1.15,2013-04-27 10:26:00,
2013-04-27 05:31:00,63.8,62.9,30.10,SW,219,0.0,0.0,97,0.00,,,0.00,0,Wunderground v.1.15,2013-04-27 10:31:00,
2013-04-27 05:36:00,63.7,62.8,30.11,SW,217,0.0,0.0,97,0.00,,,0.00,0,Wunderground v.1.15,2013-04-27 10:36:00,
2013-04-27 05:42:00,63.7,62.8,30.11,SW,217,0.0,0.0,97,0.00,,,0.00,0,Wunderground v.1.15,2013-04-27 10:42:00,
2013-04-27 05:47:00,63.6,62.7,30.10,SW,217,0.0,0.0,97,0.00,,,0.00,0,Wunderground v.1.15,2013-04-27 10:47:00,
2013-04-27 05:52:00,63.6,62.7,30.11,SW,217,0.0,0.0,97,0.00,,,0.00,0,Wunderground v.1.15,2013-04-27 10:52:00,
2013-04-27 05:58:00,63.6,62.7,30.11,SW,217,0.0,0.0,97,0.00,,,0.00,0,Wunderground v.1.15,2013-04-27 10:58:00,
2013-04-27 06:03:00,63.5,62.6,30.11,South,173,0.0,0.0,97,0.00,,,0.00,0,Wunderground v.1.15,2013-04-27 11:03:00,
2013-04-27 06:09:00,63.5,62.6,30.10,SSE,154,0.0,0.0,97,0.00,,,0.00,0,Wunderground v.1.15,2013-04-27 11:09:00,
2013-04-27 06:14:00,63.5,62.6,30.10,SSE,152,0.0,2.0,97,0.00,,,0.00,0,Wunderground v.1.15,2013-04-27 11:14:00,
2013-04-27 06:19:00,63.5,62.6,30.11,SE,142,0.0,0.0,97,0.00,,,0.00,0,Wunderground v.1.15,2013-04-27 11:19:00,
2013-04-27 06:26:00,63.5,62.6,30.11,SE,129,0.0,1.0,97,0.00,,,0.00,5,Wunderground v.1.15,2013-04-27 11:26:00,
2013-04-27 06:31:00,63.4,62.5,30.12,SE,129,0.0,0.0,97,0.00,,,0.00,9,Wunderground v.1.15,2013-04-27 11:31:00,
2013-04-27 06:37:00,63.5,62.6,30.12,SE,134,0.0,2.0,97,0.00,,,0.00,11,Wunderground v.1.15,2013-04-27 11:37:00,
2013-04-27 06:42:00,63.5,62.6,30.12,SE,134,0.0,0.0,97,0.00,,,0.00,16,Wunderground v.1.15,2013-04-27 11:42:00,
2013-04-27 06:47:00,63.5,62.6,30.12,SE,133,0.0,0.0,97,0.00,,,0.00,23,Wunderground v.1.15,2013-04-27 11:47:00,
2013-04-27 06:53:00,63.6,62.7,30.12,ESE,116,0.0,0.0,97,0.00,,,0.00,28,Wunderground v.1.15,2013-04-27 11:53:00,
2013-04-27 06:58:00,63.6,62.7,30.13,SE,125,0.0,0.0,97,0.00,,,0.00,33,Wunderground v.1.15,2013-04-27 11:58:00,
2013-04-27 07:03:00,63.7,62.8,30.13,SSE,160,0.0,0.0,97,0.00,,,0.00,46,Wunderground v.1.15,2013-04-27 12:03:00,
2013-04-27 07:08:00,63.8,62.9,30.13,SE,125,0.0,0.0,97,0.00,,,0.00,42,Wunderground v.1.15,2013-04-27 12:08:00,
2013-04-27 07:14:00,63.9,63.0,30.13,East,96,0.0,2.0,97,0.00,,,0.00,39,Wunderground v.1.15,2013-04-27 12:14:00,
2013-04-27 07:19:00,63.9,63.3,30.13,SE,140,1.0,2.0,98,0.00,,,0.00,46,Wunderground v.1.15,2013-04-27 12:19:00,
2013-04-27 07:24:00,64.0,63.1,30.13,SE,140,0.0,1.0,97,0.00,,,0.00,54,Wunderground v.1.15,2013-04-27 12:24:00,
2013-04-27 07:29:00,64.1,63.2,30.13,SE,140,0.0,0.0,97,0.00,,,0.00,53,Wunderground v.1.15,2013-04-27 12:29:00,
2013-04-27 07:35:00,64.2,63.3,30.14,SE,140,0.0,0.0,97,0.00,,,0.00,67,Wunderground v.1.15,2013-04-27 12:35:00,
2013-04-27 07:40:00,64.2,63.3,30.14,SE,142,0.0,0.0,97,0.00,,,0.00,91,Wunderground v.1.15,2013-04-27 12:40:00,
2013-04-27 07:45:00,64.3,63.4,30.14,SE,142,0.0,3.0,97,0.00,,,0.00,93,Wunderground v.1.15,2013-04-27 12:45:00,
2013-04-27 07:50:00,64.4,63.5,30.13,SE,142,0.0,0.0,97,0.00,,,0.00,111,Wunderground v.1.15,2013-04-27 12:50:00,
2013-04-27 07:56:00,64.6,63.7,30.14,SE,142,0.0,0.0,97,0.00,,,0.00,70,Wunderground v.1.15,2013-04-27 12:56:00,
2013-04-27 08:01:00,64.7,63.8,30.14,SE,142,0.0,0.0,97,0.00,,,0.00,49,Wunderground v.1.15,2013-04-27 13:01:00,
2013-04-27 08:06:00,64.7,63.8,30.14,SE,144,0.0,0.0,97,0.00,,,0.00,58,Wunderground v.1.15,2013-04-27 13:06:00,
2013-04-27 08:12:00,64.8,63.6,30.15,SE,144,0.0,0.0,96,0.00,,,0.00,204,Wunderground v.1.15,2013-04-27 13:12:00,
2013-04-27 08:17:00,64.9,63.7,30.15,SE,144,0.0,0.0,96,0.00,,,0.00,130,Wunderground v.1.15,2013-04-27 13:17:00,
2013-04-27 08:22:00,65.1,63.9,30.14,SE,144,0.0,0.0,96,0.00,,,0.00,148,Wunderground v.1.15,2013-04-27 13:22:00,
2013-04-27 08:28:00,65.3,64.1,30.14,SE,144,0.0,0.0,96,0.00,,,0.00,200,Wunderground v.1.15,2013-04-27 13:28:00,
2013-04-27 08:33:00,65.4,63.9,30.14,SE,144,0.0,0.0,95,0.00,,,0.00,162,Wunderground v.1.15,2013-04-27 13:33:00,
2013-04-27 08:38:00,65.6,64.1,30.14,SE,144,0.0,0.0,95,0.00,,,0.00,236,Wunderground v.1.15,2013-04-27 13:38:00,
2013-04-27 08:43:00,66.0,64.5,30.14,SE,144,0.0,0.0,95,0.00,,,0.00,278,Wunderground v.1.15,2013-04-27 13:43:00,
2013-04-27 08:48:00,66.5,64.7,30.14,SSE,147,0.0,0.0,94,0.00,,,0.00,232,Wunderground v.1.15,2013-04-27 13:48:00,
2013-04-27 08:54:00,66.7,64.6,30.14,SSW,205,0.0,0.0,93,0.00,,,0.00,264,Wunderground v.1.15,2013-04-27 13:54:00,
2013-04-27 08:59:00,67.0,64.9,30.14,SSW,201,0.0,0.0,93,0.00,,,0.00,232,Wunderground v.1.15,2013-04-27 13:59:00,
2013-04-27 09:05:00,67.4,65.0,30.14,SSE,152,0.0,3.0,92,0.00,,,0.00,469,Wunderground v.1.15,2013-04-27 14:05:00,
2013-04-27 09:11:00,67.6,65.2,30.14,South,186,0.0,0.0,92,0.00,,,0.00,225,Wunderground v.1.15,2013-04-27 14:11:00,
2013-04-27 09:16:00,67.6,64.9,30.14,SW,226,0.0,3.0,91,0.00,,,0.00,313,Wunderground v.1.15,2013-04-27 14:16:00,
2013-04-27 09:22:00,67.8,65.1,30.14,SW,229,0.0,0.0,91,0.00,,,0.00,555,Wunderground v.1.15,2013-04-27 14:22:00,
2013-04-27 09:27:00,68.2,65.5,30.14,SSW,211,0.0,3.0,91,0.00,,,0.00,274,Wunderground v.1.15,2013-04-27 14:27:00,
2013-04-27 09:32:00,68.5,65.8,30.14,SW,214,0.0,0.0,91,0.00,,,0.00,729,Wunderground v.1.15,2013-04-27 14:32:00,
2013-04-27 09:38:00,69.3,65.9,30.14,South,173,0.0,0.0,89,0.00,,,0.00,533,Wunderground v.1.15,2013-04-27 14:38:00,
2013-04-27 09:43:00,69.3,65.9,30.14,South,177,1.0,8.0,89,0.00,,,0.00,334,Wunderground v.1.15,2013-04-27 14:43:00,
2013-04-27 09:48:00,69.2,65.5,30.14,South,179,1.0,8.0,88,0.00,,,0.00,348,Wunderground v.1.15,2013-04-27 14:48:00,
2013-04-27 09:53:00,69.2,65.5,30.13,South,179,0.0,1.0,88,0.00,,,0.00,281,Wunderground v.1.15,2013-04-27 14:53:00,
2013-04-27 09:59:00,69.3,65.6,30.14,West,266,0.0,1.0,88,0.00,,,0.00,279,Wunderground v.1.15,2013-04-27 14:59:00,
2013-04-27 10:05:00,69.5,65.8,30.14,SW,216,1.0,5.0,88,0.00,,,0.00,425,Wunderground v.1.15,2013-04-27 15:05:00,
2013-04-27 10:10:00,69.8,66.1,30.14,SSW,212,1.0,1.0,88,0.00,,,0.00,425,Wunderground v.1.15,2013-04-27 15:10:00,
2013-04-27 10:16:00,70.2,66.1,30.14,SSW,204,1.0,1.0,87,0.00,,,0.00,332,Wunderground v.1.15,2013-04-27 15:16:00,
2013-04-27 10:21:00,70.4,66.3,30.14,South,169,0.0,0.0,87,0.00,,,0.00,336,Wunderground v.1.15,2013-04-27 15:21:00,
2013-04-27 10:26:00,70.5,65.8,30.14,SW,221,1.0,2.0,85,0.00,,,0.00,287,Wunderground v.1.15,2013-04-27 15:26:00,
2013-04-27 10:32:00,70.8,66.1,30.13,SW,232,0.0,1.0,85,0.00,,,0.00,891,Wunderground v.1.15,2013-04-27 15:32:00,
2013-04-27 10:37:00,71.5,66.4,30.13,West,260,0.0,2.0,84,0.00,,,0.00,287,Wunderground v.1.15,2013-04-27 15:37:00,
2013-04-27 10:43:00,71.6,66.2,30.13,South,174,1.0,1.0,83,0.00,,,0.00,403,Wunderground v.1.15,2013-04-27 15:43:00,
2013-04-27 10:49:00,71.8,66.7,30.13,South,181,0.0,1.0,84,0.00,,,0.00,345,Wunderground v.1.15,2013-04-27 15:49:00,
2013-04-27 10:55:00,72.0,66.6,30.13,SSE,148,1.0,1.0,83,0.00,,,0.00,902,Wunderground v.1.15,2013-04-27 15:55:00,
2013-04-27 11:00:00,72.6,67.1,30.12,SSE,151,1.0,1.0,83,0.00,,,0.00,905,Wunderground v.1.15,2013-04-27 16:00:00,
2013-04-27 11:06:00,73.1,67.3,30.12,South,178,2.0,7.0,82,0.00,,,0.00,902,Wunderground v.1.15,2013-04-27 16:06:00,
2013-04-27 11:12:00,73.4,67.6,30.12,SE,145,2.0,12.0,82,0.00,,,0.00,882,Wunderground v.1.15,2013-04-27 16:12:00,
2013-04-27 11:18:00,73.5,66.6,30.12,SSE,160,2.0,12.0,79,0.00,,,0.00,304,Wunderground v.1.15,2013-04-27 16:18:00,
2013-04-27 11:25:00,73.7,67.1,30.12,South,173,2.0,7.0,80,0.00,,,0.00,429,Wunderground v.1.15,2013-04-27 16:25:00,
2013-04-27 11:30:00,73.9,67.0,30.12,South,185,1.0,2.0,79,0.00,,,0.00,991,Wunderground v.1.15,2013-04-27 16:30:00,
2013-04-27 11:38:00,73.7,67.1,30.12,South,172,1.0,6.0,80,0.00,,,0.00,417,Wunderground v.1.15,2013-04-27 16:38:00,
2013-04-27 11:43:00,73.5,66.9,30.11,SSE,153,1.0,3.0,80,0.00,,,0.00,1014,Wunderground v.1.15,2013-04-27 16:43:00,
2013-04-27 11:48:00,73.7,66.8,30.11,SE,129,1.0,3.0,79,0.00,,,0.00,1076,Wunderground v.1.15,2013-04-27 16:48:00,
2013-04-27 11:54:00,73.6,67.0,30.11,South,171,4.0,7.0,80,0.00,,,0.00,540,Wunderground v.1.15,2013-04-27 16:54:00,
2013-04-27 11:59:00,74.0,67.4,30.11,SE,144,4.0,12.0,80,0.00,,,0.00,1201,Wunderground v.1.15,2013-04-27 16:59:00,
2013-04-27 12:05:00,73.9,67.3,30.11,SE,141,3.0,7.0,80,0.00,,,0.00,420,Wunderground v.1.15,2013-04-27 17:05:00,
2013-04-27 12:10:00,74.1,67.5,30.10,SE,140,2.0,2.0,80,0.00,,,0.00,1185,Wunderground v.1.15,2013-04-27 17:10:00,
2013-04-27 12:15:00,74.3,67.0,30.10,South,169,2.0,2.0,78,0.00,,,0.00,1185,Wunderground v.1.15,2013-04-27 17:15:00,
2013-04-27 12:21:00,74.1,66.8,30.10,SSW,212,3.0,4.0,78,0.00,,,0.00,1185,Wunderground v.1.15,2013-04-27 17:21:00,
2013-04-27 12:26:00,74.5,67.6,30.10,SE,134,3.0,8.0,79,0.00,,,0.00,1160,Wunderground v.1.15,2013-04-27 17:26:00,
2013-04-27 12:33:00,74.7,67.8,30.11,ESE,122,2.0,5.0,79,0.00,,,0.00,638,Wunderground v.1.15,2013-04-27 17:33:00,
2013-04-27 12:38:00,74.8,67.1,30.10,SSW,211,2.0,8.0,77,0.00,,,0.00,373,Wunderground v.1.15,2013-04-27 17:38:00,
2013-04-27 12:43:00,74.7,67.4,30.10,SE,127,2.0,5.0,78,0.00,,,0.00,394,Wunderground v.1.15,2013-04-27 17:43:00,
2013-04-27 12:50:00,75.1,67.4,30.09,SSE,159,2.0,11.0,77,0.00,,,0.00,418,Wunderground v.1.15,2013-04-27 17:50:00,
2013-04-27 12:57:00,75.5,67.4,30.09,South,173,2.0,13.0,76,0.00,,,0.00,1020,Wunderground v.1.15,2013-04-27 17:57:00,
2013-04-27 13:04:00,75.8,67.7,30.09,South,190,1.0,3.0,76,0.00,,,0.00,715,Wunderground v.1.15,2013-04-27 18:04:00,
2013-04-27 13:10:00,76.2,68.5,30.09,ESE,113,1.0,1.0,77,0.00,,,0.00,1069,Wunderground v.1.15,2013-04-27 18:10:00,
2013-04-27 13:18:00,76.7,67.8,30.09,SSE,167,1.0,1.0,74,0.00,,,0.00,276,Wunderground v.1.15,2013-04-27 18:18:00,
2013-04-27 13:26:00,76.1,67.6,30.09,SE,143,1.0,1.0,75,0.00,,,0.00,517,Wunderground v.1.15,2013-04-27 18:26:00,
2013-04-27 13:35:00,76.1,67.2,30.09,SW,218,2.0,7.0,74,0.00,,,0.00,1100,Wunderground v.1.15,2013-04-27 18:35:00,
2013-04-27 13:44:00,76.6,67.3,30.08,SSW,192,2.0,3.0,73,0.00,,,0.00,485,Wunderground v.1.15,2013-04-27 18:44:00,
2013-04-27 13:52:00,76.1,67.2,30.08,SE,146,2.0,2.0,74,0.00,,,0.00,466,Wunderground v.1.15,2013-04-27 18:52:00,
2013-04-27 13:58:00,76.0,67.1,30.08,SE,146,1.0,5.0,74,0.00,,,0.00,482,Wunderground v.1.15,2013-04-27 18:58:00,
2013-04-27 14:03:00,76.1,67.2,30.07,South,187,1.0,2.0,74,0.00,,,0.00,1053,Wunderground v.1.15,2013-04-27 19:03:00,
2013-04-27 14:08:00,76.7,67.8,30.07,SSW,195,1.0,2.0,74,0.00,,,0.00,960,Wunderground v.1.15,2013-04-27 19:08:00,
2013-04-27 14:14:00,77.2,67.9,30.07,SW,219,1.0,9.0,73,0.00,,,0.00,830,Wunderground v.1.15,2013-04-27 19:14:00,
2013-04-27 14:19:00,77.3,67.2,30.07,WSW,248,1.0,9.0,71,0.00,,,0.00,824,Wunderground v.1.15,2013-04-27 19:19:00,
2013-04-27 14:24:00,77.6,67.9,30.07,SSE,156,1.0,1.0,72,0.00,,,0.00,334,Wunderground v.1.15,2013-04-27 19:24:00,
2013-04-27 14:30:00,77.1,67.4,30.07,SSE,160,0.0,6.0,72,0.00,,,0.00,339,Wunderground v.1.15,2013-04-27 19:30:00,
2013-04-27 14:36:00,76.8,67.1,30.07,SE,131,0.0,6.0,72,0.00,,,0.00,336,Wunderground v.1.15,2013-04-27 19:36:00,
2013-04-27 14:41:00,76.6,67.3,30.07,SSE,161,1.0,5.0,73,0.00,,,0.00,747,Wunderground v.1.15,2013-04-27 19:41:00,
2013-04-27 14:46:00,77.4,67.3,30.06,SSW,192,1.0,9.0,71,0.00,,,0.00,956,Wunderground v.1.15,2013-04-27 19:46:00,
2013-04-27 14:52:00,78.0,67.8,30.06,SSE,154,1.0,1.0,71,0.00,,,0.00,956,Wunderground v.1.15,2013-04-27 19:52:00,
2013-04-27 14:57:00,78.1,67.9,30.06,South,180,1.0,7.0,71,0.00,,,0.00,765,Wunderground v.1.15,2013-04-27 19:57:00,
2013-04-27 15:02:00,77.9,67.3,30.06,SSW,196,1.0,1.0,70,0.00,,,0.00,352,Wunderground v.1.15,2013-04-27 20:02:00,
2013-04-27 15:07:00,78.0,68.6,30.05,SSW,202,0.0,6.0,73,0.00,,,0.00,696,Wunderground v.1.15,2013-04-27 20:07:00,
2013-04-27 15:13:00,77.9,67.3,30.05,South,190,1.0,4.0,70,0.00,,,0.00,686,Wunderground v.1.15,2013-04-27 20:13:00,
2013-04-27 15:18:00,78.0,67.8,30.05,SW,233,0.0,4.0,71,0.00,,,0.00,438,Wunderground v.1.15,2013-04-27 20:18:00,
2013-04-27 15:23:00,78.3,67.7,30.05,SW,233,0.0,0.0,70,0.00,,,0.00,176,Wunderground v.1.15,2013-04-27 20:23:00,
2013-04-27 15:28:00,78.0,67.4,30.05,SSW,202,0.0,7.0,70,0.00,,,0.00,178,Wunderground v.1.15,2013-04-27 20:28:00,
2013-04-27 15:33:00,77.7,67.1,30.04,SSE,149,0.0,5.0,70,0.00,,,0.00,367,Wunderground v.1.15,2013-04-27 20:33:00,
2013-04-27 15:38:00,77.7,67.5,30.04,SSE,152,0.0,5.0,71,0.00,,,0.00,221,Wunderground v.1.15,2013-04-27 20:38:00,
2013-04-27 15:44:00,77.7,67.1,30.04,ESE,108,0.0,0.0,70,0.00,,,0.00,128,Wunderground v.1.15,2013-04-27 20:44:00,
2013-04-27 15:49:00,77.5,67.4,30.04,South,173,0.0,0.0,71,0.00,,,0.00,81,Wunderground v.1.15,2013-04-27 20:49:00,
2013-04-27 15:59:00,76.7,67.4,30.02,South,185,0.0,0.0,73,0.00,,,0.00,221,Wunderground v.1.15,2013-04-27 20:59:00,
2013-04-27 16:04:00,76.4,67.9,30.02,South,183,0.0,0.0,75,0.00,,,0.00,313,Wunderground v.1.15,2013-04-27 21:04:00,
2013-04-27 16:10:00,76.6,67.7,30.02,SSW,200,0.0,0.0,74,0.00,,,0.00,399,Wunderground v.1.15,2013-04-27 21:10:00,
2013-04-27 16:15:00,77.1,67.0,30.02,SW,221,0.0,3.0,71,0.00,,,0.00,374,Wunderground v.1.15,2013-04-27 21:15:00,
2013-04-27 16:23:00,77.7,68.0,30.02,SSE,155,0.0,0.0,72,0.00,,,0.00,388,Wunderground v.1.15,2013-04-27 21:23:00,
2013-04-27 16:29:00,78.0,67.0,30.01,South,173,0.0,0.0,69,0.00,,,0.00,397,Wunderground v.1.15,2013-04-27 21:29:00,
2013-04-27 16:38:00,78.2,67.6,30.00,SSE,150,0.0,1.0,70,0.00,,,0.00,297,Wunderground v.1.15,2013-04-27 21:38:00,
2013-04-27 16:43:00,78.3,68.1,30.00,SSW,197,0.0,0.0,71,0.00,,,0.00,267,Wunderground v.1.15,2013-04-27 21:43:00,
2013-04-27 16:48:00,78.1,67.1,29.99,SSW,210,0.0,3.0,69,0.00,,,0.00,229,Wunderground v.1.15,2013-04-27 21:48:00,
2013-04-27 16:55:00,78.0,67.4,30.00,SSW,207,0.0,1.0,70,0.00,,,0.00,221,Wunderground v.1.15,2013-04-27 21:55:00,
2013-04-27 17:03:00,78.1,67.9,30.00,SSW,208,0.0,0.0,71,0.00,,,0.00,181,Wunderground v.1.15,2013-04-27 22:03:00,
2013-04-27 17:09:00,78.0,67.0,30.00,SSW,209,0.0,0.0,69,0.00,,,0.00,100,Wunderground v.1.15,2013-04-27 22:09:00,
2013-04-27 17:15:00,77.8,67.6,30.00,SSW,209,0.0,0.0,71,0.00,,,0.00,42,Wunderground v.1.15,2013-04-27 22:15:00,
2013-04-27 17:22:00,77.5,67.8,30.00,SSW,209,0.0,0.0,72,0.00,,,0.00,67,Wunderground v.1.15,2013-04-27 22:22:00,
2013-04-27 17:28:00,77.2,67.5,30.00,SSW,209,0.0,0.0,72,0.00,,,0.00,113,Wunderground v.1.15,2013-04-27 22:28:00,
2013-04-27 17:33:00,76.9,67.6,29.99,SSW,209,0.0,0.0,73,0.00,,,0.00,165,Wunderground v.1.15,2013-04-27 22:33:00,
2013-04-27 17:42:00,76.7,68.2,29.99,SSW,209,0.0,0.0,75,0.00,,,0.00,132,Wunderground v.1.15,2013-04-27 22:42:00,
2013-04-27 17:52:00,76.7,68.2,29.99,SW,214,0.0,0.0,75,0.00,,,0.00,174,Wunderground v.1.15,2013-04-27 22:52:00,
2013-04-27 17:58:00,76.7,68.2,29.99,SSE,165,0.0,0.0,75,0.00,,,0.00,160,Wunderground v.1.15,2013-04-27 22:58:00,
2013-04-27 18:06:00,76.7,68.6,29.99,South,186,0.0,0.0,76,0.00,,,0.00,104,Wunderground v.1.15,2013-04-27 23:06:00,
2013-04-27 18:11:00,76.7,68.2,29.99,SSW,212,0.0,0.0,75,0.00,,,0.00,102,Wunderground v.1.15,2013-04-27 23:11:00,
2013-04-27 18:17:00,76.6,68.1,29.99,South,189,0.0,0.0,75,0.00,,,0.00,91,Wunderground v.1.15,2013-04-27 23:17:00,
2013-04-27 18:38:00,76.5,68.7,29.99,SW,218,0.0,1.0,77,0.00,,,0.00,144,Wunderground v.1.15,2013-04-27 23:38:00,
2013-04-27 18:44:00,76.5,68.7,29.98,South,190,0.0,0.0,77,0.00,,,0.00,135,Wunderground v.1.15,2013-04-27 23:44:00,
2013-04-27 18:53:00,76.2,68.8,29.98,SSE,154,0.0,0.0,78,0.00,,,0.00,113,Wunderground v.1.15,2013-04-27 23:53:00,
2013-04-27 18:59:00,76.0,68.6,29.99,South,190,0.0,0.0,78,0.00,,,0.00,69,Wunderground v.1.15,2013-04-27 23:59:00,
2013-04-27 19:04:00,75.7,68.4,29.99,South,186,1.0,1.0,78,0.00,,,0.00,39,Wunderground v.1.15,2013-04-28 00:04:00,
2013-04-27 19:10:00,75.5,68.5,29.99,SSW,194,1.0,1.0,79,0.00,,,0.00,19,Wunderground v.1.15,2013-04-28 00:10:00,
2013-04-27 19:16:00,75.2,68.6,29.99,SE,144,0.0,1.0,80,0.00,,,0.00,18,Wunderground v.1.15,2013-04-28 00:16:00,
2013-04-27 19:21:00,75.0,68.8,29.99,SSE,151,0.0,0.0,81,0.00,,,0.00,14,Wunderground v.1.15,2013-04-28 00:21:00,
2013-04-27 19:26:00,74.8,68.6,29.99,SSE,153,0.0,0.0,81,0.00,,,0.00,7,Wunderground v.1.15,2013-04-28 00:26:00,
2013-04-27 19:31:00,74.6,68.7,29.99,SSW,212,0.0,0.0,82,0.00,,,0.00,0,Wunderground v.1.15,2013-04-28 00:31:00,
2013-04-27 19:36:00,74.4,68.5,29.99,SSW,192,0.0,0.0,82,0.00,,,0.00,0,Wunderground v.1.15,2013-04-28 00:36:00,
2013-04-27 19:41:00,74.2,68.3,29.99,SSE,163,0.0,0.0,82,0.00,,,0.00,0,Wunderground v.1.15,2013-04-28 00:41:00,
2013-04-27 19:47:00,74.1,68.6,29.99,SSE,163,0.0,0.0,83,0.00,,,0.00,0,Wunderground v.1.15,2013-04-28 00:47:00,
2013-04-27 19:52:00,73.8,68.3,29.99,SSW,202,0.0,0.0,83,0.00,,,0.00,0,Wunderground v.1.15,2013-04-28 00:52:00,
2013-04-27 19:57:00,73.6,68.5,29.98,SSE,166,0.0,0.0,84,0.00,,,0.00,0,Wunderground v.1.15,2013-04-28 00:57:00,
2013-04-27 20:03:00,73.4,68.3,29.98,SSE,166,0.0,0.0,84,0.00,,,0.00,0,Wunderground v.1.15,2013-04-28 01:03:00,
2013-04-27 20:08:00,73.2,68.4,29.98,South,187,0.0,0.0,85,0.00,,,0.00,0,Wunderground v.1.15,2013-04-28 01:08:00,
2013-04-27 20:13:00,73.0,68.2,29.98,South,187,0.0,0.0,85,0.00,,,0.00,0,Wunderground v.1.15,2013-04-28 01:13:00,
2013-04-27 20:19:00,72.7,68.3,29.98,South,186,0.0,0.0,86,0.00,,,0.00,0,Wunderground v.1.15,2013-04-28 01:19:00,
2013-04-27 20:24:00,72.5,68.4,29.98,South,186,0.0,0.0,87,0.00,,,0.00,0,Wunderground v.1.15,2013-04-28 01:24:00,
2013-04-27 20:29:00,72.3,68.2,29.98,South,187,0.0,0.0,87,0.00,,,0.00,0,Wunderground v.1.15,2013-04-28 01:29:00,
2013-04-27 20:35:00,72.1,68.0,29.98,South,188,0.0,3.0,87,0.00,,,0.00,0,Wunderground v.1.15,2013-04-28 01:35:00,
2013-04-27 20:40:00,72.0,67.9,29.99,South,171,0.0,0.0,87,0.00,,,0.00,0,Wunderground v.1.15,2013-04-28 01:40:00,
2013-04-27 20:45:00,71.9,68.2,29.99,South,185,0.0,0.0,88,0.00,,,0.00,0,Wunderground v.1.15,2013-04-28 01:45:00,
2013-04-27 20:50:00,71.7,68.0,29.99,South,185,0.0,0.0,88,0.00,,,0.00,0,Wunderground v.1.15,2013-04-28 01:50:00,
2013-04-27 20:55:00,71.6,67.9,30.00,South,190,0.0,0.0,88,0.00,,,0.00,0,Wunderground v.1.15,2013-04-28 01:55:00,
2013-04-27 21:01:00,71.5,67.8,29.99,South,169,0.0,1.0,88,0.00,,,0.00,0,Wunderground v.1.15,2013-04-28 02:01:00,
2013-04-27 21:06:00,71.5,67.8,30.00,SSW,198,0.0,1.0,88,0.00,,,0.00,0,Wunderground v.1.15,2013-04-28 02:06:00,
2013-04-27 21:11:00,71.4,67.7,30.00,SSW,199,0.0,0.0,88,0.00,,,0.00,0,Wunderground v.1.15,2013-04-28 02:11:00,
2013-04-27 21:16:00,71.3,67.6,30.00,SSW,199,0.0,0.0,88,0.00,,,0.00,0,Wunderground v.1.15,2013-04-28 02:16:00,
2013-04-27 21:21:00,71.3,67.9,30.00,SSW,199,0.0,0.0,89,0.00,,,0.00,0,Wunderground v.1.15,2013-04-28 02:21:00,
2013-04-27 21:27:00,71.2,67.8,30.00,SSW,196,0.0,0.0,89,0.00,,,0.00,0,Wunderground v.1.15,2013-04-28 02:27:00,
2013-04-27 21:32:00,71.0,67.6,30.00,SSW,196,0.0,0.0,89,0.00,,,0.00,0,Wunderground v.1.15,2013-04-28 02:32:00,
2013-04-27 21:38:00,70.9,67.5,30.01,SSW,196,0.0,0.0,89,0.00,,,0.00,0,Wunderground v.1.15,2013-04-28 02:38:00,
2013-04-27 21:43:00,70.8,67.7,30.01,SSW,196,0.0,0.0,90,0.00,,,0.00,0,Wunderground v.1.15,2013-04-28 02:43:00,
2013-04-27 21:48:00,70.7,67.6,30.01,SSW,196,0.0,0.0,90,0.00,,,0.00,0,Wunderground v.1.15,2013-04-28 02:48:00,
2013-04-27 21:54:00,70.6,67.5,30.01,SSW,195,0.0,0.0,90,0.00,,,0.00,0,Wunderground v.1.15,2013-04-28 02:54:00,
2013-04-27 21:59:00,70.4,67.3,30.01,SSW,195,0.0,0.0,90,0.00,,,0.00,0,Wunderground v.1.15,2013-04-28 02:59:00,
2013-04-27 22:04:00,70.3,67.2,30.01,SSW,195,0.0,0.0,90,0.00,,,0.00,0,Wunderground v.1.15,2013-04-28 03:04:00,
2013-04-27 22:10:00,70.2,67.4,30.01,SSW,195,0.0,0.0,91,0.00,,,0.00,0,Wunderground v.1.15,2013-04-28 03:10:00,
2013-04-27 22:16:00,70.1,67.3,30.01,SSW,198,0.0,0.0,91,0.00,,,0.00,0,Wunderground v.1.15,2013-04-28 03:16:00,
2013-04-27 22:21:00,69.9,67.2,30.00,SSW,196,0.0,0.0,91,0.00,,,0.00,0,Wunderground v.1.15,2013-04-28 03:21:00,
2013-04-27 22:26:00,69.9,67.2,30.00,SW,219,0.0,2.0,91,0.00,,,0.00,0,Wunderground v.1.15,2013-04-28 03:26:00,
2013-04-27 22:31:00,69.9,67.2,30.01,South,182,1.0,1.0,91,0.00,,,0.00,0,Wunderground v.1.15,2013-04-28 03:31:00,
2013-04-27 22:36:00,69.9,67.2,30.01,SSW,194,1.0,1.0,91,0.00,,,0.00,0,Wunderground v.1.15,2013-04-28 03:36:00,
2013-04-27 22:42:00,69.8,66.7,30.01,South,187,0.0,0.0,90,0.00,,,0.00,0,Wunderground v.1.15,2013-04-28 03:42:00,
2013-04-27 22:47:00,69.8,66.7,30.01,South,185,0.0,0.0,90,0.00,,,0.00,0,Wunderground v.1.15,2013-04-28 03:47:00,
2013-04-27 22:52:00,69.8,66.4,30.01,SW,218,0.0,1.0,89,0.00,,,0.00,0,Wunderground v.1.15,2013-04-28 03:52:00,
2013-04-27 22:57:00,69.8,66.4,30.01,SSW,202,0.0,4.0,89,0.00,,,0.00,0,Wunderground v.1.15,2013-04-28 03:57:00,
2013-04-27 23:01:00,69.8,66.4,30.02,SSW,201,0.0,0.0,89,0.00,,,0.00,0,Wunderground v.1.15,2013-04-28 04:01:00,
2013-04-27 23:02:00,69.8,66.4,30.02,SSW,208,0.0,0.0,89,0.00,,,0.00,0,Wunderground v.1.15,2013-04-28 04:02:00,
2013-04-27 23:03:00,69.8,66.4,30.02,SSW,209,0.0,0.0,89,0.00,,,0.00,0,Wunderground v.1.15,2013-04-28 04:03:00,
2013-04-27 23:06:00,69.9,66.2,30.02,SSW,203,0.0,0.0,88,0.00,,,0.00,0,Wunderground v.1.15,2013-04-28 04:06:00,
2013-04-27 23:10:00,69.9,66.5,30.02,SSW,203,0.0,0.0,89,0.00,,,0.00,0,Wunderground v.1.15,2013-04-28 04:10:00,
2013-04-27 23:15:00,69.8,66.4,30.01,SSW,203,0.0,0.0,89,0.00,,,0.00,0,Wunderground v.1.15,2013-04-28 04:15:00,
2013-04-27 23:20:00,69.7,66.3,30.01,SSW,202,0.0,0.0,89,0.00,,,0.00,0,Wunderground v.1.15,2013-04-28 04:20:00,
2013-04-27 23:26:00,69.6,66.2,30.02,SSW,203,0.0,0.0,89,0.00,,,0.00,0,Wunderground v.1.15,2013-04-28 04:26:00,
2013-04-27 23:31:00,69.5,66.1,30.01,SSW,203,0.0,0.0,89,0.00,,,0.00,0,Wunderground v.1.15,2013-04-28 04:31:00,
2013-04-27 23:36:00,69.4,66.0,30.01,SSW,202,0.0,2.0,89,0.00,,,0.00,0,Wunderground v.1.15,2013-04-28 04:36:00,
2013-04-27 23:42:00,69.3,65.9,30.01,SSW,202,0.0,0.0,89,0.00,,,0.00,0,Wunderground v.1.15,2013-04-28 04:42:00,
2013-04-27 23:48:00,69.1,66.0,30.01,SSW,202,0.0,0.0,90,0.00,,,0.00,0,Wunderground v.1.15,2013-04-28 04:48:00,
2013-04-27 23:54:00,69.0,65.9,30.01,SSW,202,0.0,0.0,90,0.00,,,0.00,0,Wunderground v.1.15,2013-04-28 04:54:00,